Time;durP1;ratioP1;P1;durP2;ratioP2;P2;SDS_P1;SDS_P2;PMS_P1;PMS_P2;Temp;Humidity;BMP_temperature;BMP_pressure;BME280_temperature;BME280_humidity;BME280_pressure;Samples;Min_cycle;Max_cycle;Signal;HPM_P1;HPM_P2
2022/09/18 00:02:20;;;;;;;12.02;4.05;;;;;;;10.35;100.00;163270.56;4991896;28;20446;-71
2022/09/18 00:04:45;;;;;;;11.40;4.45;;;;;;;10.40;100.00;163282.78;4992532;28;20042;-71
2022/09/18 00:07:11;;;;;;;12.20;3.00;;;;;;;10.44;100.00;163294.91;4994218;28;20038;-72
2022/09/18 00:09:36;;;;;;;10.15;3.35;;;;;;;10.39;100.00;163281.38;4993005;28;20034;-72
2022/09/18 00:12:01;;;;;;;8.23;2.78;;;;;;;10.46;100.00;163300.28;4994112;28;20045;-69
2022/09/18 00:14:27;;;;;;;9.25;2.80;;;;;;;10.42;100.00;163289.50;4993092;28;20049;-67
2022/09/18 00:16:52;;;;;;;14.85;4.63;;;;;;;10.44;100.00;163294.91;4994001;28;20030;-67
2022/09/18 00:19:19;;;;;;;10.65;4.05;;;;;;;10.42;100.00;163289.50;4992116;28;20093;-67
2022/09/18 00:21:47;;;;;;;4.35;3.15;;;;;;;10.40;100.00;163284.09;4994212;28;20084;-67
2022/09/18 00:24:12;;;;;;;7.97;2.75;;;;;;;10.38;100.00;163277.34;4992628;28;20119;-67
2022/09/18 00:26:38;;;;;;;8.00;2.83;;;;;;;10.37;100.00;163274.66;4993617;28;20069;-67
2022/09/18 00:29:04;;;;;;;9.82;2.50;;;;;;;10.30;100.00;163257.09;4992516;28;20038;-67
2022/09/18 00:31:33;;;;;;;4.93;2.53;;;;;;;10.39;100.00;163281.38;4993834;28;20064;-67
2022/09/18 00:34:01;;;;;;;5.28;1.92;;;;;;;10.35;100.00;163270.56;4991853;28;20042;-67
2022/09/18 00:36:28;;;;;;;6.88;3.35;;;;;;;10.34;100.00;163267.84;4994172;28;20030;-68
2022/09/18 00:38:54;;;;;;;7.60;3.03;;;;;;;10.38;100.00;163278.72;4992549;28;20038;-67
2022/09/18 00:41:31;;;;;;;6.18;2.60;;;;;;;10.38;100.00;163278.72;4993696;28;20092;-68
2022/09/18 00:44:32;;;;;;;6.63;2.35;;;;;;;10.42;100.00;163289.50;4972808;28;20043;-69
2022/09/18 00:47:06;;;;;;;7.00;2.58;;;;;;;10.44;100.00;163294.91;4986685;28;20491;-67
2022/09/18 00:49:32;;;;;;;7.80;3.83;;;;;;;10.45;100.00;163297.63;4992063;28;20038;-67
2022/09/18 00:52:00;;;;;;;5.60;3.42;;;;;;;10.44;100.00;163294.91;4993268;28;20037;-67
2022/09/18 00:54:41;;;;;;;5.23;3.00;;;;;;;10.44;100.00;163293.53;4992181;28;20043;-67
2022/09/18 00:57:10;;;;;;;11.82;2.88;;;;;;;10.48;100.00;163305.69;4993226;28;20096;-67
2022/09/18 00:59:37;;;;;;;16.02;4.07;;;;;;;10.47;100.00;163303.00;4992095;28;20066;-67
2022/09/18 01:02:03;;;;;;;15.10;4.57;;;;;;;10.45;100.00;163296.25;4992647;28;20079;-67
2022/09/18 01:04:29;;;;;;;9.23;4.22;;;;;;;10.44;100.00;163294.91;4992155;28;20042;-67
2022/09/18 01:07:27;;;;;;;11.68;2.58;;;;;;;10.43;100.00;163292.22;4992872;28;20100;-67
2022/09/18 01:10:02;;;;;;;7.60;2.70;;;;;;;10.46;100.00;163300.28;4991212;28;20038;-67
2022/09/18 01:12:41;;;;;;;8.35;3.65;;;;;;;10.42;100.00;163289.50;4992679;28;20481;-67
2022/09/18 01:15:17;;;;;;;5.85;3.30;;;;;;;10.42;100.00;163288.19;4990875;28;20409;-67
2022/09/18 01:17:55;;;;;;;9.73;3.78;;;;;;;10.41;100.00;163286.81;4992822;28;20030;-67
2022/09/18 01:20:59;;;;;;;25.10;3.42;;;;;;;10.40;100.00;163284.09;4991895;28;20121;-67
2022/09/18 01:24:08;;;;;;;12.70;3.13;;;;;;;10.45;100.00;163296.25;4991550;28;20411;-66
2022/09/18 01:26:54;;;;;;;7.18;3.40;;;;;;;10.50;100.00;163308.41;4992726;28;20018;-67
2022/09/18 01:29:43;;;;;;;9.90;3.40;;;;;;;10.47;100.00;163301.66;4991431;28;20082;-67
2022/09/18 01:32:53;;;;;;;9.05;2.28;;;;;;;10.48;100.00;163305.69;4992353;28;20050;-67
2022/09/18 01:35:26;;;;;;;7.57;2.28;;;;;;;10.48;100.00;163304.38;4976254;28;20395;-67
2022/09/18 01:38:07;;;;;;;7.97;2.10;;;;;;;10.40;100.00;163284.09;4992661;28;20022;-67
2022/09/18 01:40:39;;;;;;;32.25;4.95;;;;;;;10.44;100.00;163293.53;4990982;28;20042;-67
2022/09/18 01:43:07;;;;;;;10.55;4.20;;;;;;;10.42;100.00;163289.50;4992586;28;20030;-67
2022/09/18 01:45:37;;;;;;;6.47;2.50;;;;;;;10.43;100.00;163292.22;4990738;28;20092;-67
2022/09/18 01:48:06;;;;;;;11.07;3.75;;;;;;;10.44;100.00;163293.53;4991661;28;20018;-67
2022/09/18 01:50:33;;;;;;;;;;;;;;;10.48;100.00;163304.38;4991751;28;20520;-67
2022/09/18 01:53:12;;;;;;;8.57;3.65;;;;;;;10.50;100.00;163308.41;4992523;28;19910;-67
2022/09/18 01:55:40;;;;;;;10.25;2.60;;;;;;;10.41;100.00;163286.81;4990610;28;20090;-67
2022/09/18 01:58:08;;;;;;;16.45;4.43;;;;;;;10.40;100.00;163284.09;4992146;28;20544;-68
2022/09/18 02:00:37;;;;;;;8.35;2.90;;;;;;;10.42;100.00;163289.50;4990814;28;20108;-68
2022/09/18 02:03:11;;;;;;;;;;;;;;;10.46;100.00;163300.28;4992670;28;20073;-68
2022/09/18 02:05:41;;;;;;;7.80;2.30;;;;;;;10.44;100.00;163294.91;4990706;28;19932;-69
2022/09/18 02:08:26;;;;;;;8.73;3.03;;;;;;;10.43;100.00;163290.84;4992051;28;20019;-68
2022/09/18 02:10:57;;;;;;;14.25;4.43;;;;;;;10.44;100.00;163294.91;4991006;28;20038;-68
2022/09/18 02:13:27;;;;;;;7.22;3.45;;;;;;;10.41;100.00;163285.47;4992029;28;20033;-68
2022/09/18 02:15:59;;;;;;;19.90;4.82;;;;;;;10.42;100.00;163289.50;4990324;28;20104;-68
2022/09/18 02:18:31;;;;;;;10.35;3.03;;;;;;;10.39;100.00;163280.06;4990281;28;20022;-67
2022/09/18 02:20:57;;;;;;;8.23;2.95;;;;;;;10.24;100.00;163242.22;4991922;28;20030;-68
2022/09/18 02:23:24;;;;;;;13.27;3.85;;;;;;;10.39;100.00;163281.38;4991604;28;20391;-68
2022/09/18 02:25:58;;;;;;;10.90;4.05;;;;;;;10.41;100.00;163285.47;4989862;28;20065;-68
2022/09/18 02:28:27;;;;;;;6.25;2.60;;;;;;;10.39;100.00;163281.38;4991852;28;20023;-70
2022/09/18 02:30:53;;;;;;;6.45;3.08;;;;;;;10.42;100.00;163289.50;4990062;28;20084;-70
2022/09/18 02:33:28;;;;;;;10.98;3.50;;;;;;;10.42;100.00;163289.50;4991601;28;20481;-68
2022/09/18 02:36:15;;;;;;;7.35;3.20;;;;;;;10.43;100.00;163290.84;4990574;28;20518;-69
2022/09/18 02:38:48;;;;;;;12.52;2.75;;;;;;;10.43;100.00;163292.22;4990112;28;20031;-69
2022/09/18 02:41:25;;;;;;;11.27;3.20;;;;;;;10.44;100.00;163294.91;4991546;28;20061;-69
2022/09/18 02:44:00;;;;;;;10.63;2.70;;;;;;;10.47;100.00;163303.00;4990130;28;20413;-72
2022/09/18 02:46:41;;;;;;;11.40;4.82;;;;;;;10.44;100.00;163294.91;4991053;28;20030;-72
2022/09/18 02:49:14;;;;;;;8.63;3.75;;;;;;;10.47;100.00;163301.66;4990286;28;20090;-72
2022/09/18 02:51:53;;;;;;;9.27;4.00;;;;;;;10.46;100.00;163300.28;4991769;28;20109;-72
2022/09/18 02:54:25;;;;;;;16.42;4.05;;;;;;;10.50;100.00;163308.41;4970495;28;20051;-72
2022/09/18 02:56:58;;;;;;;16.70;3.65;;;;;;;10.54;100.00;163320.56;4972393;28;20018;-70
2022/09/18 02:59:38;;;;;;;11.65;4.55;;;;;;;10.54;100.00;163320.56;4986623;28;20057;-69
2022/09/18 03:02:05;;;;;;;7.60;2.70;;;;;;;10.53;100.00;163316.53;4991134;28;20037;-70
2022/09/18 03:04:31;;;;;;;13.57;4.18;;;;;;;10.51;100.00;163312.44;4990214;28;20125;-70
2022/09/18 03:06:56;;;;;;;9.23;3.42;;;;;;;10.54;100.00;163320.56;4991363;28;20027;-70
2022/09/18 03:09:23;;;;;;;16.92;3.80;;;;;;;10.58;100.00;163331.31;4989658;28;20046;-70
2022/09/18 03:11:49;;;;;;;10.60;3.25;;;;;;;10.58;100.00;163331.31;4991043;28;20022;-70
2022/09/18 03:14:14;;;;;;;11.85;3.42;;;;;;;10.63;100.00;163343.50;4990154;28;20069;-70
2022/09/18 03:16:40;;;;;;;13.07;4.03;;;;;;;10.63;100.00;163343.50;4991215;28;20068;-70
2022/09/18 03:19:05;;;;;;;7.30;4.07;;;;;;;10.61;100.00;163338.13;4989569;28;20042;-70
2022/09/18 03:21:30;;;;;;;9.27;3.13;;;;;;;10.63;100.00;163344.88;4991119;28;20394;-72
2022/09/18 03:23:56;;;;;;;14.57;5.50;;;;;;;10.66;100.00;163351.59;4989355;28;20493;-68
2022/09/18 03:26:21;;;;;;;11.93;4.90;;;;;;;10.65;100.00;163347.56;4991482;28;20171;-68
2022/09/18 03:28:47;;;;;;;12.88;4.50;;;;;;;10.65;100.00;163348.91;4989871;28;20564;-68
2022/09/18 03:31:13;;;;;;;15.55;4.38;;;;;;;10.61;100.00;163338.13;4974885;28;20540;-67
2022/09/18 03:33:39;;;;;;;14.30;3.88;;;;;;;10.55;100.00;163321.88;4989769;28;20034;-68
2022/09/18 03:36:05;;;;;;;12.50;3.92;;;;;;;10.61;100.00;163338.13;4991024;28;20023;-68
2022/09/18 03:38:36;;;;;;;19.40;4.18;;;;;;;10.59;100.00;163334.03;4993316;28;20026;-68
2022/09/18 03:41:02;;;;;;;12.10;3.88;;;;;;;10.66;100.00;163350.22;4994181;28;20031;-68
2022/09/18 03:43:27;;;;;;;8.88;3.10;;;;;;;10.61;100.00;163339.44;4993630;28;20077;-67
2022/09/18 03:45:53;;;;;;;8.65;2.65;;;;;;;10.63;100.00;163343.50;4994762;28;20484;-68
2022/09/18 03:48:19;;;;;;;10.70;3.70;;;;;;;10.62;100.00;163340.78;4994474;28;20022;-68
2022/09/18 03:50:46;;;;;;;14.27;3.85;;;;;;;10.60;100.00;163335.41;4992753;28;20057;-68
2022/09/18 03:53:12;;;;;;;10.93;2.85;;;;;;;10.63;100.00;163343.50;4994395;28;20030;-68
2022/09/18 03:55:37;;;;;;;13.98;3.83;;;;;;;10.66;100.00;163350.22;4993148;28;20049;-68
2022/09/18 03:58:03;;;;;;;16.80;3.47;;;;;;;10.61;100.00;163339.44;4994295;28;20042;-67
2022/09/18 04:00:28;;;;;;;9.77;3.60;;;;;;;10.59;100.00;163332.72;4992582;28;20042;-68
2022/09/18 04:02:54;;;;;;;10.80;4.03;;;;;;;10.56;100.00;163325.97;4994894;28;20026;-68
2022/09/18 04:05:19;;;;;;;8.02;3.55;;;;;;;10.58;100.00;163330.00;4992731;28;20575;-68
2022/09/18 04:07:45;;;;;;;7.22;2.95;;;;;;;10.60;100.00;163335.41;4994321;28;20046;-68
2022/09/18 04:10:10;;;;;;;21.63;5.97;;;;;;;10.60;100.00;163335.41;4992492;28;20409;-68
2022/09/18 04:12:35;;;;;;;11.32;4.70;;;;;;;10.57;100.00;163327.28;4994515;28;20033;-68
2022/09/18 04:15:01;;;;;;;9.70;3.70;;;;;;;10.57;100.00;163327.28;4992533;28;20045;-68
2022/09/18 04:17:26;;;;;;;6.30;3.55;;;;;;;10.56;100.00;163325.97;4994462;28;20030;-68
2022/09/18 04:19:51;;;;;;;12.23;4.57;;;;;;;10.51;100.00;163312.44;4992622;28;20414;-68
2022/09/18 04:22:17;;;;;;;8.00;3.05;;;;;;;10.53;100.00;163316.53;4993366;28;20088;-68
2022/09/18 04:24:44;;;;;;;8.73;2.90;;;;;;;10.52;100.00;163313.81;4992685;28;20042;-68
2022/09/18 04:27:09;;;;;;;13.23;2.60;;;;;;;10.52;100.00;163313.81;4993914;28;20513;-67
2022/09/18 04:29:35;;;;;;;11.45;5.05;;;;;;;10.47;100.00;163301.66;4991784;28;20046;-67
2022/09/18 04:32:00;;;;;;;12.13;3.15;;;;;;;10.47;100.00;163303.00;4994039;28;20022;-67
2022/09/18 04:34:25;;;;;;;14.13;2.75;;;;;;;10.50;100.00;163308.41;4992336;28;20109;-67
2022/09/18 04:36:51;;;;;;;12.50;3.05;;;;;;;10.51;100.00;163311.09;4993712;28;20042;-68
2022/09/18 04:39:16;;;;;;;10.73;3.63;;;;;;;10.52;100.00;163313.81;4992158;28;20054;-68
2022/09/18 04:41:44;;;;;;;8.80;3.88;;;;;;;10.51;100.00;163311.09;4993670;28;20526;-68
2022/09/18 04:44:09;;;;;;;10.50;4.10;;;;;;;10.50;100.00;163309.72;4992121;28;20048;-68
2022/09/18 04:46:34;;;;;;;6.00;2.75;;;;;;;10.50;100.00;163308.41;4993657;28;20026;-68
2022/09/18 04:49:00;;;;;;;11.98;3.30;;;;;;;10.51;100.00;163312.44;4991524;28;20042;-68
2022/09/18 04:51:25;;;;;;;16.73;4.20;;;;;;;10.49;100.00;163307.06;4993009;28;20034;-68
2022/09/18 04:53:50;;;;;;;13.00;4.28;;;;;;;10.53;100.00;163317.84;4992670;28;20073;-68
2022/09/18 04:56:16;;;;;;;16.70;4.63;;;;;;;10.53;100.00;163316.53;4993162;28;20041;-68
2022/09/18 04:58:41;;;;;;;8.10;2.45;;;;;;;10.50;100.00;163308.41;4991855;28;20034;-68
2022/09/18 05:01:07;;;;;;;11.00;4.32;;;;;;;10.51;100.00;163312.44;4993095;28;20026;-68
2022/09/18 05:03:32;;;;;;;10.43;3.05;;;;;;;10.51;100.00;163311.09;4991826;28;20042;-69
2022/09/18 05:05:57;;;;;;;20.52;5.13;;;;;;;10.50;100.00;163308.41;4992614;28;20030;-63
2022/09/18 05:08:23;;;;;;;7.97;2.50;;;;;;;10.48;100.00;163305.69;4992825;28;20026;-61
2022/09/18 05:10:48;;;;;;;11.10;3.13;;;;;;;10.51;100.00;163312.44;4990837;28;20049;-63
2022/09/18 05:13:14;;;;;;;25.38;5.15;;;;;;;10.53;100.00;163316.53;4993223;28;20034;-63
2022/09/18 05:15:39;;;;;;;11.98;4.63;;;;;;;10.56;100.00;163324.59;4989677;28;20517;-63
2022/09/18 05:18:06;;;;;;;10.63;2.33;;;;;;;10.50;100.00;163308.41;4993473;28;20114;-64
2022/09/18 05:20:34;;;;;;;7.07;3.38;;;;;;;10.54;100.00;163320.56;4997169;28;20042;-68
2022/09/18 05:22:59;;;;;;;13.82;4.10;;;;;;;10.54;100.00;163319.19;4991977;28;20034;-67
2022/09/18 05:25:27;;;;;;;9.70;3.22;;;;;;;10.57;100.00;163327.28;4990015;28;20038;-67
2022/09/18 05:27:54;;;;;;;12.37;3.60;;;;;;;10.63;100.00;163343.50;4990544;28;20429;-67
2022/09/18 05:30:20;;;;;;;12.57;3.88;;;;;;;10.66;100.00;163351.59;4971159;28;20476;-69
2022/09/18 05:32:53;;;;;;;8.75;3.17;;;;;;;10.66;100.00;163351.59;4972235;28;20057;-69
2022/09/18 05:35:19;;;;;;;7.85;3.10;;;;;;;10.62;100.00;163340.78;4981848;28;20097;-69
2022/09/18 05:37:44;;;;;;;11.43;2.83;;;;;;;10.66;100.00;163351.59;4991686;28;20034;-70
2022/09/18 05:40:10;;;;;;;12.48;5.28;;;;;;;10.66;100.00;163350.22;4989180;28;20050;-69
2022/09/18 05:42:35;;;;;;;8.40;3.33;;;;;;;10.68;100.00;163357.03;4992402;28;20022;-69
2022/09/18 05:45:00;;;;;;;13.60;3.83;;;;;;;10.64;100.00;163346.19;4990105;28;20045;-69
2022/09/18 05:47:26;;;;;;;18.35;4.57;;;;;;;10.68;100.00;163357.03;4991473;28;20478;-69
2022/09/18 05:49:51;;;;;;;14.45;3.72;;;;;;;10.68;100.00;163357.03;4990490;28;20046;-69
2022/09/18 05:52:16;;;;;;;10.70;2.78;;;;;;;10.67;100.00;163354.31;4991000;28;20169;-74
2022/09/18 05:54:42;;;;;;;9.55;4.25;;;;;;;10.70;100.00;163362.38;4989372;28;20101;-74
2022/09/18 05:57:07;;;;;;;6.90;3.13;;;;;;;10.75;100.00;163375.91;4991642;28;20374;-72
2022/09/18 05:59:32;;;;;;;13.40;4.68;;;;;;;10.76;100.00;163378.56;4989490;28;20086;-72
2022/09/18 06:01:58;;;;;;;20.65;4.00;;;;;;;10.70;100.00;163362.38;4990161;28;20026;-72
2022/09/18 06:04:23;;;;;;;15.00;3.88;;;;;;;10.75;100.00;163375.91;4990353;28;20105;-72
2022/09/18 06:06:48;;;;;;;10.05;3.53;;;;;;;10.76;100.00;163378.56;4991751;28;20042;-72
2022/09/18 06:09:14;;;;;;;10.82;3.47;;;;;;;10.76;100.00;163377.25;4988893;28;20050;-72
2022/09/18 06:11:39;;;;;;;14.93;3.63;;;;;;;10.82;100.00;163392.09;4991287;28;20081;-72
2022/09/18 06:14:04;;;;;;;14.48;3.17;;;;;;;10.87;100.00;163406.91;4988853;28;20100;-72
2022/09/18 06:16:30;;;;;;;13.70;3.58;;;;;;;10.82;100.00;163392.09;4990340;28;20059;-66
2022/09/18 06:18:55;;;;;;;9.80;3.00;;;;;;;10.86;100.00;163402.88;4989723;28;20046;-66
2022/09/18 06:21:20;;;;;;;20.40;4.47;;;;;;;10.84;100.00;163397.47;4990959;28;20034;-66
2022/09/18 06:23:46;;;;;;;18.67;4.40;;;;;;;10.90;100.00;163413.72;4988655;28;20738;-66
2022/09/18 06:26:11;;;;;;;17.73;4.25;;;;;;;10.91;100.00;163416.38;4990501;28;20030;-66
2022/09/18 06:28:36;;;;;;;6.22;2.08;;;;;;;10.98;100.00;163433.94;4988957;28;20038;-67
2022/09/18 06:31:03;;;;;;;7.15;3.53;;;;;;;10.99;100.00;163437.97;4989841;28;20053;-67
2022/09/18 06:33:28;;;;;;;7.93;2.42;;;;;;;11.02;100.00;163446.09;4989445;28;20061;-61
2022/09/18 06:35:54;;;;;;;17.17;4.03;;;;;;;10.99;100.00;163437.97;4991099;28;20038;-62
2022/09/18 06:38:20;;;;;;;6.95;3.17;;;;;;;11.04;100.00;163451.50;4989812;28;20034;-61
2022/09/18 06:40:50;;;;;;;10.20;4.78;;;;;;;11.02;100.00;163446.09;4989108;28;20045;-62
2022/09/18 06:43:15;;;;;;;10.25;2.45;;;;;;;11.06;100.00;163456.88;4990243;28;20034;-62
2022/09/18 06:45:41;;;;;;;7.70;3.15;;;;;;;11.13;100.00;163473.13;4988793;28;20049;-61
2022/09/18 06:48:06;;;;;;;11.48;2.92;;;;;;;11.18;100.00;163487.94;4990695;28;20033;-62
2022/09/18 06:50:31;;;;;;;4.45;3.20;;;;;;;11.16;100.00;163482.56;4988428;28;20069;-62
2022/09/18 06:53:05;;;;;;;9.38;3.58;;;;;;;11.20;100.00;163493.34;4989400;28;20389;-62
2022/09/18 06:55:31;;;;;;;13.27;2.70;;;;;;;11.25;100.00;163506.84;4989250;28;20046;-62
2022/09/18 06:57:58;;;;;;;3.50;2.58;;;;;;;11.31;100.00;163521.72;4990235;28;20085;-61
2022/09/18 07:00:25;;;;;;;6.75;3.15;;;;;;;11.37;100.00;163537.91;4988619;28;20046;-62
2022/09/18 07:02:58;;;;;;;13.35;5.47;;;;;;;11.40;100.00;163544.66;4990811;28;20037;-61
2022/09/18 07:05:29;;;;;;;11.25;2.83;;;;;;;11.45;100.00;163556.81;4988421;28;20540;-61
2022/09/18 07:07:54;;;;;;;13.60;3.67;;;;;;;11.44;100.00;163555.47;4989794;28;20109;-62
2022/09/18 07:10:20;;;;;;;9.75;3.67;;;;;;;11.46;100.00;163559.50;4989199;28;20414;-61
2022/09/18 07:12:47;;;;;;;9.77;3.40;;;;;;;11.52;100.00;163577.09;4993275;28;20030;-61
2022/09/18 07:15:17;;;;;;;7.40;3.22;;;;;;;11.66;100.00;163612.19;4991037;28;20046;-61
2022/09/18 07:17:43;;;;;;;10.43;4.03;;;;;;;11.77;100.00;163640.56;4991228;28;20405;-61
2022/09/18 07:20:09;;;;;;;12.13;3.70;;;;;;;11.81;100.00;163651.34;4992170;28;20046;-61
2022/09/18 07:22:35;;;;;;;12.70;3.25;;;;;;;11.79;100.00;163645.97;4993082;28;20382;-62
2022/09/18 07:25:00;;;;;;;8.30;3.45;;;;;;;11.81;100.00;163652.72;4992855;28;20133;-61
2022/09/18 07:27:27;;;;;;;14.55;4.03;;;;;;;11.74;100.00;163635.16;5009009;28;20022;-62
2022/09/18 07:29:53;;;;;;;11.85;3.70;;;;;;;11.81;100.00;163651.34;4991936;28;20593;-61
2022/09/18 07:32:21;;;;;;;7.63;2.67;;;;;;;11.79;100.00;163645.97;4993982;28;20034;-61
2022/09/18 07:34:46;;;;;;;16.15;3.80;;;;;;;11.70;100.00;163624.38;4992273;28;20088;-61
2022/09/18 07:37:11;;;;;;;10.77;2.92;;;;;;;11.71;100.00;163627.06;4992522;28;20026;-61
2022/09/18 07:39:37;;;;;;;9.38;3.25;;;;;;;11.54;100.00;163581.13;4993015;28;20062;-61
2022/09/18 07:42:02;;;;;;;17.35;2.95;;;;;;;11.53;100.00;163578.41;4994079;28;20034;-62
2022/09/18 07:44:29;;;;;;;13.88;4.70;;;;;;;11.46;100.00;163560.91;4992120;28;20046;-62
2022/09/18 07:46:54;;;;;;;14.23;5.65;;;;;;;11.48;100.00;163564.94;4994557;28;20062;-62
2022/09/18 07:49:20;;;;;;;9.93;3.72;;;;;;;11.45;100.00;163558.19;4992163;28;20049;-63
2022/09/18 07:51:45;;;;;;;8.95;2.80;;;;;;;11.40;100.00;163546.03;4993271;28;20038;-62
2022/09/18 07:54:11;;;;;;;5.90;2.53;;;;;;;11.39;100.00;163543.31;4992708;28;20111;-63
2022/09/18 07:56:36;;;;;;;8.77;2.80;;;;;;;11.36;100.00;163535.19;4992465;28;20038;-63
2022/09/18 07:59:02;;;;;;;5.90;2.47;;;;;;;11.38;100.00;163540.63;4988408;28;20042;-63
2022/09/18 08:01:27;;;;;;;9.38;2.40;;;;;;;11.38;100.00;163540.63;5004865;28;20029;-62
2022/09/18 08:03:52;;;;;;;8.55;2.72;;;;;;;11.39;100.00;163543.31;4994704;28;20050;-63
2022/09/18 08:06:19;;;;;;;11.23;4.50;;;;;;;11.38;100.00;163540.63;4991210;28;20516;-63
2022/09/18 08:08:44;;;;;;;11.38;2.45;;;;;;;11.42;100.00;163551.44;4991564;28;20026;-62
2022/09/18 08:11:09;;;;;;;13.45;3.97;;;;;;;11.36;100.00;163535.19;4992848;28;20026;-62
2022/09/18 08:13:35;;;;;;;10.98;3.45;;;;;;;11.27;100.00;163510.94;4991574;28;20029;-63
2022/09/18 08:16:02;;;;;;;7.35;3.08;;;;;;;11.31;100.00;163520.38;4992005;28;20505;-63
2022/09/18 08:18:27;;;;;;;13.20;3.15;;;;;;;11.31;100.00;163521.72;4991890;28;20038;-62
2022/09/18 08:20:56;;;;;;;11.75;3.42;;;;;;;11.35;100.00;163531.16;4993227;28;20386;-63
2022/09/18 08:23:21;;;;;;;7.47;3.08;;;;;;;11.34;100.00;163529.84;4992311;28;20694;-62
2022/09/18 08:25:47;;;;;;;9.25;2.80;;;;;;;11.29;100.00;163516.28;4991274;28;20046;-62
2022/09/18 08:28:13;;;;;;;6.85;3.20;;;;;;;11.36;100.00;163535.19;4992937;28;20393;-63
2022/09/18 08:30:38;;;;;;;8.63;2.60;;;;;;;11.43;100.00;163554.09;4991497;28;20054;-63
2022/09/18 08:33:06;;;;;;;4.97;3.00;;;;;;;11.46;100.00;163560.91;4991526;28;20026;-63
2022/09/18 08:35:32;;;;;;;4.57;2.53;;;;;;;11.51;100.00;163573.00;4991266;28;20456;-63
2022/09/18 08:37:58;;;;;;;16.48;3.53;;;;;;;11.49;100.00;163567.63;4992227;28;20105;-63
2022/09/18 08:40:54;;;;;;;6.72;3.50;;;;;;;11.54;100.00;163581.13;4991285;28;20064;-62
2022/09/18 08:43:28;;;;;;;5.85;3.03;;;;;;;11.56;100.00;163586.53;4988849;28;20038;-63
2022/09/18 08:46:20;;;;;;;2.75;2.22;;;;;;;11.63;100.00;163605.47;4991638;28;20120;-63
2022/09/18 08:48:59;;;;;;;8.10;2.83;;;;;;;11.64;100.00;163608.16;4987703;28;20043;-63
2022/09/18 08:51:33;;;;;;;5.13;2.88;;;;;;;11.62;100.00;163602.75;4992140;28;20509;-63
2022/09/18 08:54:15;;;;;;;10.02;4.13;;;;;;;11.66;100.00;163613.53;4991645;28;20045;-63
2022/09/18 08:56:41;;;;;;;4.65;2.53;;;;;;;11.64;100.00;163606.78;4992716;28;20026;-63
2022/09/18 08:59:16;;;;;;;7.30;3.90;;;;;;;11.61;100.00;163600.03;4990245;28;20104;-63
2022/09/18 09:02:12;;;;;;;15.23;6.03;;;;;;;11.55;100.00;163583.84;4992791;28;20041;-63
2022/09/18 09:04:37;;;;;;;9.57;4.50;;;;;;;11.63;100.00;163605.47;4991325;28;20038;-63
2022/09/18 09:07:29;;;;;;;19.83;10.20;;;;;;;11.67;100.00;163616.22;4991450;28;20034;-63
2022/09/18 09:10:26;;;;;;;58.30;27.02;;;;;;;11.71;100.00;163627.06;4972011;28;20502;-63
2022/09/18 09:13:19;;;;;;;11.25;4.93;;;;;;;11.75;100.00;163637.84;4937129;28;20058;-63
2022/09/18 09:16:06;;;;;;;7.90;4.32;;;;;;;11.71;100.00;163627.06;4971750;28;20502;-63
2022/09/18 09:18:57;;;;;;;20.88;10.05;;;;;;;11.72;100.00;163629.78;4987218;28;20030;-63
2022/09/18 09:21:26;;;;;;;9.23;3.75;;;;;;;11.79;100.00;163645.97;4973172;28;20398;-63
2022/09/18 09:24:19;;;;;;;9.30;3.22;;;;;;;11.89;100.00;163672.97;4991162;28;20437;-63
2022/09/18 09:26:47;;;;;;;8.90;4.60;;;;;;;11.98;100.00;163697.34;4990997;28;20523;-63
2022/09/18 09:29:35;;;;;;;10.57;2.23;;;;;;;12.11;100.00;163729.75;4990813;28;20034;-63
2022/09/18 09:32:09;;;;;;;5.95;3.10;;;;;;;12.20;100.00;163755.47;4991963;28;20515;-63
2022/09/18 09:34:43;;;;;;;6.78;3.25;;;;;;;12.32;100.00;163786.50;4990564;28;20506;-62
2022/09/18 09:37:15;;;;;;;6.75;2.67;;;;;;;12.40;100.00;163805.47;4976329;28;20034;-64
2022/09/18 09:39:48;;;;;;;7.13;2.83;;;;;;;12.56;100.00;163848.66;4987845;28;20069;-63
2022/09/18 09:42:24;;;;;;;4.03;1.50;;;;;;;12.66;100.00;163874.34;4991696;28;20231;-63
2022/09/18 09:44:57;;;;;;;6.10;2.70;;;;;;;12.63;100.00;163866.25;4990856;28;20142;-63
2022/09/18 09:47:40;;;;;;;4.20;2.20;;;;;;;12.65;100.00;163871.69;4992124;28;20398;-63
2022/09/18 09:50:31;;;;;;;4.75;2.40;;;;;;;12.62;100.00;163863.53;4990498;28;20077;-63
2022/09/18 09:53:01;;;;;;;2.78;1.70;;;;;;;12.59;100.00;163856.78;4992330;28;20030;-63
2022/09/18 09:55:33;;;;;;;5.55;2.47;;;;;;;12.51;100.00;163835.16;4990361;28;20042;-63
2022/09/18 09:58:02;;;;;;;7.20;3.63;;;;;;;12.38;100.00;163801.38;4991937;28;20497;-63
2022/09/18 10:00:33;;;;;;;6.85;2.53;;;;;;;12.43;100.00;163813.53;4990309;28;20042;-63
2022/09/18 10:03:11;;;;;;;4.05;2.00;;;;;;;12.35;100.00;163794.63;4990621;28;20193;-62
2022/09/18 10:05:45;;;;;;;;;;;;;;;12.28;100.00;163774.38;4990952;28;20043;-62
2022/09/18 10:08:26;;;;;;;8.55;2.80;;;;;;;12.24;100.00;163764.91;4991626;28;19913;-62
2022/09/18 10:10:56;;;;;;;6.78;1.98;;;;;;;12.34;100.00;163791.91;4989206;28;20034;-63
2022/09/18 10:13:35;;;;;;;9.52;3.35;;;;;;;12.22;100.00;163760.84;4991650;28;20030;-63
2022/09/18 10:16:11;;;;;;;3.03;1.50;;;;;;;12.15;100.00;163740.59;4990260;28;20042;-63
2022/09/18 10:18:42;;;;;;;3.90;1.63;;;;;;;12.03;100.00;163709.50;4990116;28;20426;-62
2022/09/18 10:21:17;;;;;;;6.78;1.70;;;;;;;11.94;100.00;163686.50;4991020;28;20034;-62
2022/09/18 10:23:47;;;;;;;9.02;1.90;;;;;;;12.01;100.00;163704.09;4990178;28;20046;-62
2022/09/18 10:26:26;;;;;;;5.57;1.83;;;;;;;11.96;100.00;163691.88;4991173;28;20038;-62
2022/09/18 10:28:52;;;;;;;6.03;1.50;;;;;;;11.97;100.00;163694.63;4989537;28;20456;-62
2022/09/18 10:31:17;;;;;;;8.10;2.72;;;;;;;11.96;100.00;163691.88;4990981;28;20050;-62
2022/09/18 10:33:46;;;;;;;8.48;2.00;;;;;;;11.89;100.00;163672.97;4989848;28;20513;-61
2022/09/18 10:36:27;;;;;;;7.18;1.83;;;;;;;11.87;100.00;163668.94;4991580;28;20031;-62
2022/09/18 10:38:52;;;;;;;7.13;1.50;;;;;;;11.81;100.00;163651.34;4990210;28;20124;-61
2022/09/18 10:41:34;;;;;;;7.13;1.80;;;;;;;11.82;100.00;163654.06;4991024;28;20402;-61
2022/09/18 10:44:17;;;;;;;9.15;3.13;;;;;;;11.75;100.00;163637.84;4990059;28;20065;-62
2022/09/18 10:47:01;;;;;;;19.77;2.80;;;;;;;11.77;100.00;163640.56;4990821;28;20462;-62
2022/09/18 10:49:56;;;;;;;5.60;2.20;;;;;;;11.86;100.00;163664.91;4985626;28;20104;-61
2022/09/18 10:52:32;;;;;;;8.18;2.00;;;;;;;11.87;100.00;163667.59;4991206;28;20010;-62
2022/09/18 10:55:07;;;;;;;8.27;1.75;;;;;;;11.89;100.00;163672.97;4989506;28;20046;-62
2022/09/18 10:57:38;;;;;;;2.78;1.95;;;;;;;11.90;100.00;163675.69;4990870;28;20057;-62
2022/09/18 11:00:24;;;;;;;6.25;1.70;;;;;;;11.89;100.00;163672.97;4978947;28;20053;-62
2022/09/18 11:02:57;;;;;;;8.25;2.55;;;;;;;11.91;100.00;163678.38;4979663;28;20544;-62
2022/09/18 11:05:28;;;;;;;2.70;2.33;;;;;;;11.83;100.00;163656.75;4989465;28;20049;-61
2022/09/18 11:07:56;;;;;;;7.55;1.90;;;;;;;11.72;100.00;163628.41;4990798;28;20544;-64
2022/09/18 11:10:25;;;;;;;5.07;1.87;;;;;;;11.77;100.00;163640.56;4989096;28;20049;-67
2022/09/18 11:12:56;;;;;;;3.78;1.42;;;;;;;11.67;100.00;163616.22;4990465;28;20026;-64
2022/09/18 11:15:26;;;;;;;3.63;1.60;;;;;;;11.72;100.00;163628.41;4988502;28;20042;-64
2022/09/18 11:17:54;;;;;;;4.90;2.50;;;;;;;11.69;100.00;163620.31;4989428;28;20378;-64
2022/09/18 11:20:26;;;;;;;6.65;1.65;;;;;;;11.68;100.00;163618.94;4987919;28;20046;-64
2022/09/18 11:22:52;;;;;;;2.05;1.70;;;;;;;11.64;100.00;163608.16;4989461;28;20082;-64
2022/09/18 11:25:25;;;;;;;2.78;1.08;;;;;;;11.62;100.00;163602.75;4987845;28;20113;-64
2022/09/18 11:27:54;;;;;;;3.50;2.20;;;;;;;11.63;100.00;163604.06;4989561;28;20026;-64
2022/09/18 11:30:32;;;;;;;6.50;2.58;;;;;;;11.62;100.00;163602.75;4987831;28;20082;-65